Terminal Aerodrome Forecast
Issued by NWS

Home | Current Version | Previous Version | Text Only | Print | Product List | Glossary Off
Versions: 1 2 3 4 5 6 7 8 9 10 11 12 13 14 15 16 17 18 19

000
FTUS43 KICT 312000 AAA
TAFRSL
TAF AMD
KRSL 312052Z 3121/0118 18026G35KT P6SM VCTS SCT050CB BKN120
     FM010300 32013KT P6SM VCTS SCT040CB BKN080
     FM010600 05009KT 5SM BR SCT040 BKN080
     FM011400 36012KT P6SM BKN120=

USA.gov is the U.S. government's official web portal to all federal, state and local government web resources and services.